sensor_id;sensor_type;location;lat;lon;timestamp;pressure;altitude;pressure_sealevel;temperature;humidity
68656;BME280;55638;51.122;13.606;2023-03-04T00:00:20;100660.03;;;1.03;60.93
68656;BME280;55638;51.122;13.606;2023-03-04T00:01:52;100670.66;;;1.03;60.77
68656;BME280;55638;51.122;13.606;2023-03-04T00:03:24;100650.28;;;1.04;61.03
68656;BME280;55638;51.122;13.606;2023-03-04T00:04:56;100656.44;;;1.04;60.98
68656;BME280;55638;51.122;13.606;2023-03-04T00:06:28;100646.75;;;1.03;60.89
68656;BME280;55638;51.122;13.606;2023-03-04T00:08:00;100653.84;;;1.03;60.90
68656;BME280;55638;51.122;13.606;2023-03-04T00:09:31;100646.75;;;1.03;60.94
68656;BME280;55638;51.122;13.606;2023-03-04T00:11:03;100656.44;;;1.04;60.84
68656;BME280;55638;51.122;13.606;2023-03-04T00:12:35;100644.06;;;1.05;60.92
68656;BME280;55638;51.122;13.606;2023-03-04T00:14:07;100649.38;;;1.05;60.84
68656;BME280;55638;51.122;13.606;2023-03-04T00:15:39;100645.78;;;1.06;60.82
68656;BME280;55638;51.122;13.606;2023-03-04T00:17:10;100642.19;;;1.07;60.85
68656;BME280;55638;51.122;13.606;2023-03-04T00:18:42;100643.13;;;1.06;60.89
68656;BME280;55638;51.122;13.606;2023-03-04T00:20:14;100647.47;;;1.08;60.95
68656;BME280;55638;51.122;13.606;2023-03-04T00:21:46;100646.59;;;1.08;60.77
68656;BME280;55638;51.122;13.606;2023-03-04T00:23:17;100645.72;;;1.07;60.89
68656;BME280;55638;51.122;13.606;2023-03-04T00:24:49;100644.81;;;1.08;60.79
68656;BME280;55638;51.122;13.606;2023-03-04T00:26:21;100647.47;;;1.08;60.82
68656;BME280;55638;51.122;13.606;2023-03-04T00:27:53;100649.19;;;1.09;60.91
68656;BME280;55638;51.122;13.606;2023-03-04T00:29:25;100642.94;;;1.11;60.95
68656;BME280;55638;51.122;13.606;2023-03-04T00:30:57;100644.75;;;1.10;60.74
68656;BME280;55638;51.122;13.606;2023-03-04T00:32:29;100651.72;;;1.13;60.74
68656;BME280;55638;51.122;13.606;2023-03-04T00:34:01;100645.59;;;1.11;60.91
68656;BME280;55638;51.122;13.606;2023-03-04T00:35:33;100638.53;;;1.11;60.77
68656;BME280;55638;51.122;13.606;2023-03-04T00:37:05;100634.94;;;1.12;60.80
68656;BME280;55638;51.122;13.606;2023-03-04T00:38:37;100639.31;;;1.13;60.71
68656;BME280;55638;51.122;13.606;2023-03-04T00:40:09;100635.81;;;1.13;60.74
68656;BME280;55638;51.122;13.606;2023-03-04T00:41:41;100625.19;;;1.13;60.68
68656;BME280;55638;51.122;13.606;2023-03-04T00:43:13;100630.50;;;1.13;60.62
68656;BME280;55638;51.122;13.606;2023-03-04T00:44:45;100627.84;;;1.13;60.86
68656;BME280;55638;51.122;13.606;2023-03-04T00:46:16;100620.81;;;1.12;60.74
68656;BME280;55638;51.122;13.606;2023-03-04T00:47:48;100626.91;;;1.14;60.86
68656;BME280;55638;51.122;13.606;2023-03-04T00:49:20;100626.00;;;1.15;60.88
68656;BME280;55638;51.122;13.606;2023-03-04T00:50:52;100625.09;;;1.14;60.85
68656;BME280;55638;51.122;13.606;2023-03-04T00:52:24;100619.75;;;1.16;60.86
68656;BME280;55638;51.122;13.606;2023-03-04T00:53:56;100619.81;;;1.14;60.60
68656;BME280;55638;51.122;13.606;2023-03-04T00:55:31;100618.03;;;1.15;60.89
68656;BME280;55638;51.122;13.606;2023-03-04T00:57:03;100623.34;;;1.15;60.79
68656;BME280;55638;51.122;13.606;2023-03-04T00:58:35;100613.63;;;1.14;60.67
68656;BME280;55638;51.122;13.606;2023-03-04T01:00:07;100617.16;;;1.14;60.59
68656;BME280;55638;51.122;13.606;2023-03-04T01:01:39;100617.16;;;1.14;60.73
68656;BME280;55638;51.122;13.606;2023-03-04T01:03:11;100617.16;;;1.14;60.89
68656;BME280;55638;51.122;13.606;2023-03-04T01:04:43;100612.72;;;1.15;60.64
68656;BME280;55638;51.122;13.606;2023-03-04T01:06:15;100609.13;;;1.16;60.84
68656;BME280;55638;51.122;13.606;2023-03-04T01:07:48;100612.66;;;1.16;60.87
68656;BME280;55638;51.122;13.606;2023-03-04T01:09:20;100613.50;;;1.17;60.81
68656;BME280;55638;51.122;13.606;2023-03-04T01:10:51;100605.53;;;1.17;60.71
68656;BME280;55638;51.122;13.606;2023-03-04T01:12:23;100607.34;;;1.16;60.77
68656;BME280;55638;51.122;13.606;2023-03-04T01:13:55;100599.38;;;1.16;60.73
68656;BME280;55638;51.122;13.606;2023-03-04T01:15:27;100597.53;;;1.18;60.57
68656;BME280;55638;51.122;13.606;2023-03-04T01:16:59;100592.34;;;1.15;60.64
68656;BME280;55638;51.122;13.606;2023-03-04T01:18:31;100588.75;;;1.16;60.53
68656;BME280;55638;51.122;13.606;2023-03-04T01:20:05;100587.03;;;1.15;60.51
68656;BME280;55638;51.122;13.606;2023-03-04T01:21:39;100588.75;;;1.16;60.54
68656;BME280;55638;51.122;13.606;2023-03-04T01:23:10;100588.81;;;1.15;60.54
68656;BME280;55638;51.122;13.606;2023-03-04T01:24:43;100579.06;;;1.15;60.67
68656;BME280;55638;51.122;13.606;2023-03-04T01:26:14;100577.31;;;1.14;60.68
68656;BME280;55638;51.122;13.606;2023-03-04T01:27:46;100581.72;;;1.15;60.71
68656;BME280;55638;51.122;13.606;2023-03-04T01:29:18;100574.72;;;1.13;60.78
68656;BME280;55638;51.122;13.606;2023-03-04T01:30:50;100570.25;;;1.15;60.65
68656;BME280;55638;51.122;13.606;2023-03-04T01:32:21;100572.81;;;1.16;60.76
68656;BME280;55638;51.122;13.606;2023-03-04T01:33:53;100575.56;;;1.15;60.72
68656;BME280;55638;51.122;13.606;2023-03-04T01:35:25;100572.91;;;1.15;60.43
68656;BME280;55638;51.122;13.606;2023-03-04T01:36:57;100568.50;;;1.14;60.58
68656;BME280;55638;51.122;13.606;2023-03-04T01:38:29;100560.47;;;1.15;60.74
68656;BME280;55638;51.122;13.606;2023-03-04T01:40:01;100567.59;;;1.15;60.68
68656;BME280;55638;51.122;13.606;2023-03-04T01:41:32;100560.47;;;1.15;60.68
68656;BME280;55638;51.122;13.606;2023-03-04T01:43:04;100563.13;;;1.15;60.61
68656;BME280;55638;51.122;13.606;2023-03-04T01:44:36;100557.88;;;1.14;60.67
68656;BME280;55638;51.122;13.606;2023-03-04T01:46:09;100559.63;;;1.15;60.53
68656;BME280;55638;51.122;13.606;2023-03-04T01:47:45;100552.56;;;1.14;60.45
68656;BME280;55638;51.122;13.606;2023-03-04T01:49:20;100550.75;;;1.14;60.75
68656;BME280;55638;51.122;13.606;2023-03-04T01:50:52;100549.00;;;1.15;60.71
68656;BME280;55638;51.122;13.606;2023-03-04T01:52:26;100548.19;;;1.13;60.39
68656;BME280;55638;51.122;13.606;2023-03-04T01:53:58;100554.31;;;1.15;60.54
68656;BME280;55638;51.122;13.606;2023-03-04T01:55:30;100555.16;;;1.15;60.56
68656;BME280;55638;51.122;13.606;2023-03-04T01:57:14;100555.22;;;1.14;60.39
68656;BME280;55638;51.122;13.606;2023-03-04T01:59:18;100547.38;;;1.11;60.23
68656;BME280;55638;51.122;13.606;2023-03-04T02:00:50;100549.00;;;1.15;60.50
68656;BME280;55638;51.122;13.606;2023-03-04T02:02:22;100541.94;;;1.14;60.69
68656;BME280;55638;51.122;13.606;2023-03-04T02:03:54;100542.78;;;1.14;60.66
68656;BME280;55638;51.122;13.606;2023-03-04T02:05:26;100541.94;;;1.14;60.65
68656;BME280;55638;51.122;13.606;2023-03-04T02:07:00;100534.91;;;1.13;60.64
68656;BME280;55638;51.122;13.606;2023-03-04T02:08:33;100539.25;;;1.15;60.70
68656;BME280;55638;51.122;13.606;2023-03-04T02:10:05;100539.16;;;1.17;60.50
68656;BME280;55638;51.122;13.606;2023-03-04T02:11:38;100533.94;;;1.15;60.52
68656;BME280;55638;51.122;13.606;2023-03-04T02:13:12;100541.03;;;1.15;60.54
68656;BME280;55638;51.122;13.606;2023-03-04T02:14:44;100527.75;;;1.15;60.53
68656;BME280;55638;51.122;13.606;2023-03-04T02:16:16;100526.88;;;1.14;60.74
68656;BME280;55638;51.122;13.606;2023-03-04T02:17:48;100526.88;;;1.14;60.63
68656;BME280;55638;51.122;13.606;2023-03-04T02:19:27;100524.22;;;1.14;60.62
68656;BME280;55638;51.122;13.606;2023-03-04T02:21:23;100526.88;;;1.14;60.43
68656;BME280;55638;51.122;13.606;2023-03-04T02:23:16;100523.44;;;1.12;60.49
68656;BME280;55638;51.122;13.606;2023-03-04T02:24:59;100523.34;;;1.14;60.40
68656;BME280;55638;51.122;13.606;2023-03-04T02:26:34;100527.75;;;1.15;60.36
68656;BME280;55638;51.122;13.606;2023-03-04T02:28:06;100526.00;;;1.14;60.36
68656;BME280;55638;51.122;13.606;2023-03-04T02:29:38;100526.00;;;1.14;60.41
68656;BME280;55638;51.122;13.606;2023-03-04T02:31:23;100518.13;;;1.12;60.59
68656;BME280;55638;51.122;13.606;2023-03-04T02:32:56;100522.44;;;1.15;60.38
68656;BME280;55638;51.122;13.606;2023-03-04T02:34:31;100522.56;;;1.12;60.21
68656;BME280;55638;51.122;13.606;2023-03-04T02:36:03;100515.38;;;1.14;60.62
68656;BME280;55638;51.122;13.606;2023-03-04T02:37:35;100518.97;;;1.13;60.34
68656;BME280;55638;51.122;13.606;2023-03-04T02:40:53;100515.38;;;1.14;60.41
68656;BME280;55638;51.122;13.606;2023-03-04T02:42:27;100515.38;;;1.14;60.45
68656;BME280;55638;51.122;13.606;2023-03-04T02:43:58;100506.63;;;1.12;60.50
68656;BME280;55638;51.122;13.606;2023-03-04T02:45:38;100503.13;;;1.11;60.39
68656;BME280;55638;51.122;13.606;2023-03-04T02:47:13;100505.69;;;1.13;60.63
68656;BME280;55638;51.122;13.606;2023-03-04T02:48:45;100500.38;;;1.13;60.33
68656;BME280;55638;51.122;13.606;2023-03-04T02:50:17;100499.53;;;1.12;60.54
68656;BME280;55638;51.122;13.606;2023-03-04T02:51:58;100500.38;;;1.13;60.16
68656;BME280;55638;51.122;13.606;2023-03-04T02:53:31;100494.13;;;1.14;60.46
68656;BME280;55638;51.122;13.606;2023-03-04T02:55:03;100490.59;;;1.15;60.24
68656;BME280;55638;51.122;13.606;2023-03-04T02:56:35;100479.97;;;1.15;60.46
68656;BME280;55638;51.122;13.606;2023-03-04T02:58:07;100489.69;;;1.14;60.47
68656;BME280;55638;51.122;13.606;2023-03-04T02:59:40;100482.63;;;1.15;60.50
68656;BME280;55638;51.122;13.606;2023-03-04T03:01:16;100482.63;;;1.15;60.26
68656;BME280;55638;51.122;13.606;2023-03-04T03:02:48;100483.53;;;1.14;60.50
68656;BME280;55638;51.122;13.606;2023-03-04T03:04:21;100472.91;;;1.14;60.44
68656;BME280;55638;51.122;13.606;2023-03-04T03:05:56;100477.31;;;1.15;60.54
68656;BME280;55638;51.122;13.606;2023-03-04T03:07:29;100481.69;;;1.16;60.42
68656;BME280;55638;51.122;13.606;2023-03-04T03:09:02;100485.28;;;1.15;60.52
68656;BME280;55638;51.122;13.606;2023-03-04T03:10:34;100478.22;;;1.14;60.51
68656;BME280;55638;51.122;13.606;2023-03-04T03:12:07;100474.66;;;1.15;60.31
68656;BME280;55638;51.122;13.606;2023-03-04T03:13:39;100473.84;;;1.13;60.29
68656;BME280;55638;51.122;13.606;2023-03-04T03:15:11;100469.38;;;1.13;60.41
68656;BME280;55638;51.122;13.606;2023-03-04T03:16:43;100475.69;;;1.11;60.43
68656;BME280;55638;51.122;13.606;2023-03-04T03:18:15;100476.50;;;1.13;60.29
68656;BME280;55638;51.122;13.606;2023-03-04T03:19:47;100479.22;;;1.11;60.45
68656;BME280;55638;51.122;13.606;2023-03-04T03:21:19;100479.22;;;1.11;60.31
68656;BME280;55638;51.122;13.606;2023-03-04T03:22:51;100471.25;;;1.11;60.37
68656;BME280;55638;51.122;13.606;2023-03-04T03:24:23;100473.84;;;1.13;60.55
68656;BME280;55638;51.122;13.606;2023-03-04T03:25:55;100472.91;;;1.14;60.54
68656;BME280;55638;51.122;13.606;2023-03-04T03:27:26;100469.47;;;1.12;60.42
68656;BME280;55638;51.122;13.606;2023-03-04T03:28:58;100470.38;;;1.11;60.42
68656;BME280;55638;51.122;13.606;2023-03-04T03:30:31;100467.72;;;1.11;60.29
68656;BME280;55638;51.122;13.606;2023-03-04T03:32:03;100470.38;;;1.11;60.48
68656;BME280;55638;51.122;13.606;2023-03-04T03:33:36;100472.13;;;1.12;60.39
68656;BME280;55638;51.122;13.606;2023-03-04T03:35:08;100472.16;;;1.10;60.30
68656;BME280;55638;51.122;13.606;2023-03-04T03:36:40;100462.34;;;1.12;60.39
68656;BME280;55638;51.122;13.606;2023-03-04T03:38:11;100463.28;;;1.11;60.27
68656;BME280;55638;51.122;13.606;2023-03-04T03:39:43;100463.28;;;1.11;60.34
68656;BME280;55638;51.122;13.606;2023-03-04T03:41:15;100464.19;;;1.10;60.27
68656;BME280;55638;51.122;13.606;2023-03-04T03:42:47;100461.53;;;1.10;60.35
68656;BME280;55638;51.122;13.606;2023-03-04T03:44:18;100466.84;;;1.10;60.31
68656;BME280;55638;51.122;13.606;2023-03-04T03:45:50;100460.69;;;1.09;60.30
68656;BME280;55638;51.122;13.606;2023-03-04T03:47:22;100467.78;;;1.09;60.36
68656;BME280;55638;51.122;13.606;2023-03-04T03:48:54;100456.22;;;1.10;60.47
68656;BME280;55638;51.122;13.606;2023-03-04T03:50:26;100468.66;;;1.09;60.45
68656;BME280;55638;51.122;13.606;2023-03-04T03:51:59;100468.66;;;1.09;60.46
68656;BME280;55638;51.122;13.606;2023-03-04T03:53:31;100465.06;;;1.11;60.40
68656;BME280;55638;51.122;13.606;2023-03-04T03:55:03;100467.72;;;1.11;60.45
68656;BME280;55638;51.122;13.606;2023-03-04T03:56:35;100467.72;;;1.11;60.38
68656;BME280;55638;51.122;13.606;2023-03-04T03:58:07;100467.72;;;1.11;60.60
68656;BME280;55638;51.122;13.606;2023-03-04T03:59:38;100468.59;;;1.11;60.56
68656;BME280;55638;51.122;13.606;2023-03-04T04:01:10;100470.38;;;1.11;60.51
68656;BME280;55638;51.122;13.606;2023-03-04T04:02:42;100467.72;;;1.11;60.33
68656;BME280;55638;51.122;13.606;2023-03-04T04:04:14;100467.78;;;1.09;60.58
68656;BME280;55638;51.122;13.606;2023-03-04T04:05:46;100473.03;;;1.11;60.57
68656;BME280;55638;51.122;13.606;2023-03-04T04:07:18;100459.75;;;1.11;60.36
68656;BME280;55638;51.122;13.606;2023-03-04T04:08:50;100473.03;;;1.11;60.49
68656;BME280;55638;51.122;13.606;2023-03-04T04:10:21;100470.31;;;1.12;60.60
68656;BME280;55638;51.122;13.606;2023-03-04T04:11:53;100471.19;;;1.13;60.38
68656;BME280;55638;51.122;13.606;2023-03-04T04:13:25;100473.84;;;1.13;60.44
68656;BME280;55638;51.122;13.606;2023-03-04T04:14:57;100477.34;;;1.13;60.59
68656;BME280;55638;51.122;13.606;2023-03-04T04:16:29;100470.19;;;1.15;60.61
68656;BME280;55638;51.122;13.606;2023-03-04T04:18:01;100463.22;;;1.13;60.49
68656;BME280;55638;51.122;13.606;2023-03-04T04:19:33;100468.44;;;1.14;60.29
68656;BME280;55638;51.122;13.606;2023-03-04T04:21:05;100475.56;;;1.14;60.25
68656;BME280;55638;51.122;13.606;2023-03-04T04:22:37;100474.66;;;1.15;60.25
68656;BME280;55638;51.122;13.606;2023-03-04T04:24:09;100473.75;;;1.14;60.58
68656;BME280;55638;51.122;13.606;2023-03-04T04:25:40;100471.06;;;1.16;60.60
68656;BME280;55638;51.122;13.606;2023-03-04T04:27:12;100472.00;;;1.15;60.51
68656;BME280;55638;51.122;13.606;2023-03-04T04:28:44;100472.78;;;1.17;60.53
68656;BME280;55638;51.122;13.606;2023-03-04T04:30:16;100471.91;;;1.16;60.43
68656;BME280;55638;51.122;13.606;2023-03-04T04:31:48;100463.91;;;1.18;60.49
68656;BME280;55638;51.122;13.606;2023-03-04T04:33:20;100470.97;;;1.17;60.67
68656;BME280;55638;51.122;13.606;2023-03-04T04:34:53;100471.88;;;1.18;60.58
68656;BME280;55638;51.122;13.606;2023-03-04T04:36:26;100468.22;;;1.20;60.52
68656;BME280;55638;51.122;13.606;2023-03-04T04:37:57;100473.53;;;1.20;60.22
68656;BME280;55638;51.122;13.606;2023-03-04T04:39:29;100469.03;;;1.22;60.28
68656;BME280;55638;51.122;13.606;2023-03-04T04:41:13;100467.22;;;1.23;60.29
68656;BME280;55638;51.122;13.606;2023-03-04T04:42:49;100476.06;;;1.23;60.30
68656;BME280;55638;51.122;13.606;2023-03-04T04:44:20;100466.28;;;1.24;60.45
68656;BME280;55638;51.122;13.606;2023-03-04T04:45:52;100469.75;;;1.26;60.32
68656;BME280;55638;51.122;13.606;2023-03-04T04:47:24;100462.78;;;1.23;60.22
68656;BME280;55638;51.122;13.606;2023-03-04T04:48:56;100463.63;;;1.24;60.36
68656;BME280;55638;51.122;13.606;2023-03-04T04:50:27;100468.81;;;1.27;60.47
68656;BME280;55638;51.122;13.606;2023-03-04T04:52:03;100462.66;;;1.26;60.35
68656;BME280;55638;51.122;13.606;2023-03-04T04:53:35;100457.34;;;1.26;60.35
68656;BME280;55638;51.122;13.606;2023-03-04T04:55:07;100459.09;;;1.27;60.33
68656;BME280;55638;51.122;13.606;2023-03-04T04:56:39;100456.44;;;1.27;60.36
68656;BME280;55638;51.122;13.606;2023-03-04T04:58:11;100463.50;;;1.27;60.48
68656;BME280;55638;51.122;13.606;2023-03-04T04:59:43;100452.88;;;1.27;60.43
68656;BME280;55638;51.122;13.606;2023-03-04T05:01:15;100467.91;;;1.28;60.23
68656;BME280;55638;51.122;13.606;2023-03-04T05:02:47;100454.56;;;1.29;60.25
68656;BME280;55638;51.122;13.606;2023-03-04T05:04:18;100458.06;;;1.30;60.45
68656;BME280;55638;51.122;13.606;2023-03-04T05:05:50;100451.88;;;1.31;60.43
68656;BME280;55638;51.122;13.606;2023-03-04T05:07:22;100451.00;;;1.30;60.28
68656;BME280;55638;51.122;13.606;2023-03-04T05:08:54;100452.75;;;1.30;60.44
68656;BME280;55638;51.122;13.606;2023-03-04T05:10:25;100448.34;;;1.30;60.17
68656;BME280;55638;51.122;13.606;2023-03-04T05:11:57;100455.38;;;1.31;60.32
68656;BME280;55638;51.122;13.606;2023-03-04T05:13:29;100451.88;;;1.31;60.50
68656;BME280;55638;51.122;13.606;2023-03-04T05:15:01;100449.22;;;1.31;60.23
68656;BME280;55638;51.122;13.606;2023-03-04T05:16:33;100440.31;;;1.32;60.45
68656;BME280;55638;51.122;13.606;2023-03-04T05:18:05;100449.09;;;1.34;60.38
68656;BME280;55638;51.122;13.606;2023-03-04T05:19:37;100442.00;;;1.33;60.35
68656;BME280;55638;51.122;13.606;2023-03-04T05:21:09;100441.97;;;1.35;60.22
68656;BME280;55638;51.122;13.606;2023-03-04T05:22:40;100442.00;;;1.33;60.46
68656;BME280;55638;51.122;13.606;2023-03-04T05:24:12;100446.34;;;1.36;60.27
68656;BME280;55638;51.122;13.606;2023-03-04T05:25:44;100446.34;;;1.36;60.19
68656;BME280;55638;51.122;13.606;2023-03-04T05:27:16;100442.72;;;1.38;60.35
68656;BME280;55638;51.122;13.606;2023-03-04T05:28:48;100442.72;;;1.38;60.49
68656;BME280;55638;51.122;13.606;2023-03-04T05:30:20;100444.44;;;1.39;60.44
68656;BME280;55638;51.122;13.606;2023-03-04T05:31:52;100441.75;;;1.39;60.24
68656;BME280;55638;51.122;13.606;2023-03-04T05:33:24;100436.44;;;1.39;60.45
68656;BME280;55638;51.122;13.606;2023-03-04T05:34:56;100433.81;;;1.39;60.39
68656;BME280;55638;51.122;13.606;2023-03-04T05:36:28;100427.59;;;1.40;60.30
68656;BME280;55638;51.122;13.606;2023-03-04T05:38:00;100431.09;;;1.41;60.33
68656;BME280;55638;51.122;13.606;2023-03-04T05:39:32;100429.28;;;1.41;60.18
68656;BME280;55638;51.122;13.606;2023-03-04T05:41:05;100430.88;;;1.45;60.11
68656;BME280;55638;51.122;13.606;2023-03-04T05:42:37;100428.31;;;1.44;60.32
68656;BME280;55638;51.122;13.606;2023-03-04T05:44:09;100430.03;;;1.45;60.34
68656;BME280;55638;51.122;13.606;2023-03-04T05:45:41;100435.22;;;1.48;60.23
68656;BME280;55638;51.122;13.606;2023-03-04T05:47:13;100433.50;;;1.47;60.33
68656;BME280;55638;51.122;13.606;2023-03-04T05:48:45;100432.69;;;1.45;60.13
68656;BME280;55638;51.122;13.606;2023-03-04T05:50:17;100429.94;;;1.46;60.29
68656;BME280;55638;51.122;13.606;2023-03-04T05:51:49;100424.59;;;1.48;60.33
68656;BME280;55638;51.122;13.606;2023-03-04T05:53:21;100430.75;;;1.48;60.30
68656;BME280;55638;51.122;13.606;2023-03-04T05:54:53;100417.41;;;1.50;60.21
68656;BME280;55638;51.122;13.606;2023-03-04T05:56:24;100416.53;;;1.49;60.24
68656;BME280;55638;51.122;13.606;2023-03-04T05:57:56;100421.81;;;1.51;60.32
68656;BME280;55638;51.122;13.606;2023-03-04T05:59:28;100426.19;;;1.52;60.19
68656;BME280;55638;51.122;13.606;2023-03-04T06:01:01;100428.78;;;1.53;60.13
68656;BME280;55638;51.122;13.606;2023-03-04T06:02:33;100421.69;;;1.54;60.17
68656;BME280;55638;51.122;13.606;2023-03-04T06:04:05;100420.81;;;1.53;60.13
68656;BME280;55638;51.122;13.606;2023-03-04T06:05:37;100418.03;;;1.57;60.18
68656;BME280;55638;51.122;13.606;2023-03-04T06:07:09;100420.63;;;1.58;60.17
68656;BME280;55638;51.122;13.606;2023-03-04T06:08:40;100417.09;;;1.58;60.32
68656;BME280;55638;51.122;13.606;2023-03-04T06:10:14;100416.16;;;1.59;60.12
68656;BME280;55638;51.122;13.606;2023-03-04T06:11:46;100416.16;;;1.59;60.23
68656;BME280;55638;51.122;13.606;2023-03-04T06:13:18;100414.31;;;1.61;60.20
68656;BME280;55638;51.122;13.606;2023-03-04T06:14:50;100412.44;;;1.63;60.38
68656;BME280;55638;51.122;13.606;2023-03-04T06:16:22;100409.00;;;1.61;59.90
68656;BME280;55638;51.122;13.606;2023-03-04T06:17:54;100408.91;;;1.62;60.08
68656;BME280;55638;51.122;13.606;2023-03-04T06:19:26;100404.34;;;1.66;60.29
68656;BME280;55638;51.122;13.606;2023-03-04T06:21:01;100409.72;;;1.64;59.81
68656;BME280;55638;51.122;13.606;2023-03-04T06:22:34;100410.53;;;1.66;60.33
68656;BME280;55638;51.122;13.606;2023-03-04T06:24:06;100412.16;;;1.69;60.08
68656;BME280;55638;51.122;13.606;2023-03-04T06:25:38;100413.03;;;1.69;60.14
68656;BME280;55638;51.122;13.606;2023-03-04T06:27:09;100404.16;;;1.70;60.38
68656;BME280;55638;51.122;13.606;2023-03-04T06:28:42;100409.38;;;1.72;60.35
68656;BME280;55638;51.122;13.606;2023-03-04T06:30:14;100415.50;;;1.74;60.41
68656;BME280;55638;51.122;13.606;2023-03-04T06:31:45;100410.13;;;1.75;60.28
68656;BME280;55638;51.122;13.606;2023-03-04T06:33:18;100406.53;;;1.76;60.40
68656;BME280;55638;51.122;13.606;2023-03-04T06:34:50;100412.72;;;1.77;60.33
68656;BME280;55638;51.122;13.606;2023-03-04T06:36:21;100405.47;;;1.81;60.41
68656;BME280;55638;51.122;13.606;2023-03-04T06:37:53;100405.47;;;1.81;60.37
68656;BME280;55638;51.122;13.606;2023-03-04T06:39:25;100408.03;;;1.82;60.18
68656;BME280;55638;51.122;13.606;2023-03-04T06:41:05;100415.16;;;1.82;59.86
68656;BME280;55638;51.122;13.606;2023-03-04T06:42:38;100413.22;;;1.85;60.38
68656;BME280;55638;51.122;13.606;2023-03-04T06:44:10;100416.69;;;1.87;60.37
68656;BME280;55638;51.122;13.606;2023-03-04T06:45:42;100409.53;;;1.89;60.34
68656;BME280;55638;51.122;13.606;2023-03-04T06:47:14;100405.94;;;1.90;60.21
68656;BME280;55638;51.122;13.606;2023-03-04T06:48:47;100411.25;;;1.90;60.18
68656;BME280;55638;51.122;13.606;2023-03-04T06:50:18;100414.75;;;1.91;60.37
68656;BME280;55638;51.122;13.606;2023-03-04T06:51:50;100412.06;;;1.92;60.36
68656;BME280;55638;51.122;13.606;2023-03-04T06:53:23;100412.84;;;1.94;59.74
68656;BME280;55638;51.122;13.606;2023-03-04T06:54:55;100412.78;;;1.96;60.07
68656;BME280;55638;51.122;13.606;2023-03-04T06:56:26;100410.03;;;1.97;60.29
68656;BME280;55638;51.122;13.606;2023-03-04T06:57:58;100406.38;;;2.00;60.21
68656;BME280;55638;51.122;13.606;2023-03-04T06:59:30;100401.94;;;2.00;60.18
68656;BME280;55638;51.122;13.606;2023-03-04T07:01:13;100409.09;;;1.98;60.13
68656;BME280;55638;51.122;13.606;2023-03-04T07:02:45;100410.72;;;2.02;60.01
68656;BME280;55638;51.122;13.606;2023-03-04T07:04:16;100412.44;;;2.03;60.23
68656;BME280;55638;51.122;13.606;2023-03-04T07:05:48;100409.78;;;2.03;60.21
68656;BME280;55638;51.122;13.606;2023-03-04T07:07:20;100410.59;;;2.06;60.07
68656;BME280;55638;51.122;13.606;2023-03-04T07:08:52;100414.94;;;2.07;60.07
68656;BME280;55638;51.122;13.606;2023-03-04T07:10:24;100414.94;;;2.07;60.13
68656;BME280;55638;51.122;13.606;2023-03-04T07:11:56;100404.22;;;2.08;60.09
68656;BME280;55638;51.122;13.606;2023-03-04T07:13:28;100404.19;;;2.10;60.31
68656;BME280;55638;51.122;13.606;2023-03-04T07:14:59;100404.09;;;2.11;60.18
68656;BME280;55638;51.122;13.606;2023-03-04T07:16:32;100405.84;;;2.12;60.21
68656;BME280;55638;51.122;13.606;2023-03-04T07:18:04;100405.84;;;2.12;60.18
68656;BME280;55638;51.122;13.606;2023-03-04T07:19:36;100402.16;;;2.15;60.33
68656;BME280;55638;51.122;13.606;2023-03-04T07:21:08;100412.66;;;2.18;60.54
68656;BME280;55638;51.122;13.606;2023-03-04T07:22:40;100410.00;;;2.18;60.51
68656;BME280;55638;51.122;13.606;2023-03-04T07:24:11;100404.53;;;2.21;60.33
68656;BME280;55638;51.122;13.606;2023-03-04T07:25:43;100409.72;;;2.24;60.25
68656;BME280;55638;51.122;13.606;2023-03-04T07:27:15;100406.22;;;2.23;60.33
68656;BME280;55638;51.122;13.606;2023-03-04T07:28:47;100410.59;;;2.24;60.15
68656;BME280;55638;51.122;13.606;2023-03-04T07:30:19;100406.03;;;2.28;60.22
68656;BME280;55638;51.122;13.606;2023-03-04T07:31:51;100405.00;;;2.31;60.27
68656;BME280;55638;51.122;13.606;2023-03-04T07:33:24;100410.16;;;2.34;60.45
68656;BME280;55638;51.122;13.606;2023-03-04T07:34:56;100408.31;;;2.36;60.22
68656;BME280;55638;51.122;13.606;2023-03-04T07:36:28;100405.50;;;2.39;60.15
68656;BME280;55638;51.122;13.606;2023-03-04T07:38:00;100411.69;;;2.39;60.05
68656;BME280;55638;51.122;13.606;2023-03-04T07:39:31;100409.03;;;2.39;60.16
68656;BME280;55638;51.122;13.606;2023-03-04T07:41:03;100405.44;;;2.40;60.18
68656;BME280;55638;51.122;13.606;2023-03-04T07:42:35;100407.09;;;2.43;60.35
68656;BME280;55638;51.122;13.606;2023-03-04T07:44:13;100403.44;;;2.45;60.47
68656;BME280;55638;51.122;13.606;2023-03-04T07:45:44;100407.81;;;2.46;60.43
68656;BME280;55638;51.122;13.606;2023-03-04T07:47:16;100410.34;;;2.49;60.43
68656;BME280;55638;51.122;13.606;2023-03-04T07:48:48;100403.16;;;2.52;60.42
68656;BME280;55638;51.122;13.606;2023-03-04T07:50:20;100408.34;;;2.55;60.36
68656;BME280;55638;51.122;13.606;2023-03-04T07:51:52;100408.19;;;2.58;60.43
68656;BME280;55638;51.122;13.606;2023-03-04T07:53:24;100406.31;;;2.60;60.30
68656;BME280;55638;51.122;13.606;2023-03-04T07:54:56;100405.25;;;2.64;60.45
68656;BME280;55638;51.122;13.606;2023-03-04T07:56:30;100409.53;;;2.66;60.21
68656;BME280;55638;51.122;13.606;2023-03-04T07:58:02;100404.16;;;2.68;60.37
68656;BME280;55638;51.122;13.606;2023-03-04T07:59:34;100397.75;;;2.72;60.46
68656;BME280;55638;51.122;13.606;2023-03-04T08:01:22;100395.88;;;2.74;60.21
68656;BME280;55638;51.122;13.606;2023-03-04T08:02:54;100401.84;;;2.79;60.47
68656;BME280;55638;51.122;13.606;2023-03-04T08:04:26;100400.78;;;2.83;60.54
68656;BME280;55638;51.122;13.606;2023-03-04T08:05:57;100396.22;;;2.85;60.60